Fort Stockton-Pecos County Information

FAA: FST - ICAO: KFST

Fort Stockton-Pecos County (Airport) Location

State Texas
County Pecos
City Fort Stockton
Fort Stockton-Pecos County (Airport) is 2 miles northwest of Fort Stockton, TX.
Latitude 30-54-54.9000N
Longitude 102-54-46.0000W
Elevation 3,011ft

Fort Stockton-Pecos County METARs

METAR KFST 190053Z AUTO 28009KT 10SM CLR 19/01 A2991 RMK AO2 SLP095 T01890006
Altimeter 29.91"
Temperature 18.9°C (66.0°F)
Wind 280° at 9KT
Clouds Skies are clear.
Visibility 10.0mi
Time observed: 2022-01-19T00:53:00Z

Fort Stockton-Pecos County (Airport) Details

Status Operational
Activation January 1947
Ownership Public
Usage Public
Chart SAN ANTONIO
ATC on-site No
Beacon schedule sunset-sunrise
Beacon color clear green

Fort Stockton-Pecos County (Airport) Contacts

Owner PECOS COUNTY
Owner address 1574 AIRPORT DRIVE, FORT STOCKTON, TX 79735
Owner phone 432-336-6261
Manager MEL ASBERRY
Manager address 2464 CR 655, FARMERSVILLE, TX 75442-6014
Manager phone 972-784-7544

Fort Stockton-Pecos County Radio Frequencies

Fort Stockton-Pecos County (Airport) Radio Frequencies

UNICOM 122.8
Common traffic advisory frequency (CTAF) 122.8